createdAt,value
2018-09-13T00:01:56.293Z,8.83
2018-09-13T00:04:24.081Z,8.83
2018-09-13T00:06:52.167Z,9.07
2018-09-13T00:09:19.996Z,9.10
2018-09-13T00:11:47.860Z,7.77
2018-09-13T00:14:15.679Z,8.83
2018-09-13T00:16:43.443Z,9.17
2018-09-13T00:19:11.263Z,8.67
2018-09-13T00:21:39.064Z,9.07
2018-09-13T00:24:06.858Z,8.67
2018-09-13T00:26:34.684Z,8.23
2018-09-13T00:29:02.526Z,8.63
2018-09-13T00:31:30.312Z,8.17
2018-09-13T00:33:58.142Z,9.13
2018-09-13T00:36:25.960Z,8.60
2018-09-13T00:38:53.756Z,8.57
2018-09-13T00:41:21.571Z,8.43
2018-09-13T00:43:49.430Z,7.90
2018-09-13T00:46:17.258Z,8.83
2018-09-13T00:48:45.091Z,8.60
2018-09-13T00:51:12.991Z,9.13
2018-09-13T00:53:40.781Z,7.47
2018-09-13T00:56:08.603Z,7.30
2018-09-13T00:58:36.485Z,7.83
2018-09-13T01:01:04.272Z,7.60
2018-09-13T01:03:32.156Z,8.33
2018-09-13T01:05:59.952Z,8.87
2018-09-13T01:08:27.744Z,8.00
2018-09-13T01:10:55.578Z,7.80
2018-09-13T01:13:23.435Z,7.20
2018-09-13T01:15:51.446Z,7.17
2018-09-13T01:18:19.272Z,7.77
2018-09-13T01:20:47.114Z,8.47
2018-09-13T01:23:14.924Z,7.50
2018-09-13T01:25:42.746Z,7.80
2018-09-13T01:28:10.584Z,7.53
2018-09-13T01:30:38.432Z,8.10
2018-09-13T01:33:06.316Z,8.07
2018-09-13T01:35:34.096Z,8.00
2018-09-13T01:38:01.932Z,7.13
2018-09-13T01:40:29.779Z,7.17
2018-09-13T01:42:57.584Z,7.13
2018-09-13T01:45:25.431Z,7.17
2018-09-13T01:47:53.275Z,7.30
2018-09-13T01:50:21.096Z,7.10
2018-09-13T01:52:48.935Z,6.47
2018-09-13T01:55:16.803Z,7.50
2018-09-13T01:57:44.687Z,6.87
2018-09-13T02:00:12.509Z,6.67
2018-09-13T02:02:40.308Z,7.07
2018-09-13T02:05:08.170Z,6.60
2018-09-13T02:07:36.000Z,6.90
2018-09-13T02:10:03.983Z,6.57
2018-09-13T02:12:31.837Z,6.40
2018-09-13T02:14:59.667Z,6.67
2018-09-13T02:17:27.528Z,6.10
2018-09-13T02:19:55.316Z,6.90
2018-09-13T02:22:23.133Z,5.47
2018-09-13T02:24:50.992Z,7.00
2018-09-13T02:27:18.819Z,6.43
2018-09-13T02:29:46.620Z,6.20
2018-09-13T02:32:18.245Z,6.10
2018-09-13T02:34:46.156Z,6.40
2018-09-13T02:37:13.948Z,6.70
2018-09-13T02:39:41.797Z,5.60
2018-09-13T02:42:09.677Z,5.97
2018-09-13T02:44:37.485Z,7.00
2018-09-13T02:47:05.304Z,6.40
2018-09-13T02:49:33.142Z,6.67
2018-09-13T02:52:00.974Z,6.53
2018-09-13T02:54:28.900Z,7.43
2018-09-13T02:56:56.707Z,6.00
2018-09-13T02:59:24.580Z,6.70
2018-09-13T03:01:52.512Z,6.47
2018-09-13T03:04:20.272Z,6.33
2018-09-13T03:06:48.152Z,7.20
2018-09-13T03:09:15.947Z,6.63
2018-09-13T03:11:44.031Z,6.30
2018-09-13T03:14:14.154Z,7.43
2018-09-13T03:16:41.970Z,7.33
2018-09-13T03:19:09.924Z,6.87
2018-09-13T03:21:37.732Z,7.10
2018-09-13T03:24:05.546Z,6.80
2018-09-13T03:26:33.545Z,7.13
2018-09-13T03:29:01.481Z,7.40
2018-09-13T03:31:29.531Z,7.97
2018-09-13T03:33:57.359Z,7.53
2018-09-13T03:36:25.111Z,6.77
2018-09-13T03:38:52.983Z,6.97
2018-09-13T03:41:20.827Z,7.13
2018-09-13T03:43:48.729Z,6.87
2018-09-13T03:46:16.513Z,6.00
2018-09-13T03:48:44.319Z,6.17
2018-09-13T03:51:12.106Z,6.90
2018-09-13T03:53:39.950Z,6.40
2018-09-13T03:56:07.883Z,6.47
2018-09-13T03:58:35.743Z,6.60
2018-09-13T04:01:03.637Z,6.13
2018-09-13T04:03:31.591Z,5.67
2018-09-13T04:05:59.434Z,6.23
2018-09-13T04:08:27.806Z,5.90
2018-09-13T04:10:55.581Z,5.97
2018-09-13T04:13:23.510Z,5.70
2018-09-13T04:15:51.276Z,5.23
2018-09-13T04:18:22.403Z,5.67
2018-09-13T04:20:50.344Z,5.13
2018-09-13T04:23:18.187Z,5.80
2018-09-13T04:25:46.060Z,5.90
2018-09-13T04:28:13.923Z,5.60
2018-09-13T04:30:41.727Z,5.43
2018-09-13T04:33:09.551Z,5.67
2018-09-13T04:35:37.460Z,5.67
2018-09-13T04:38:05.524Z,5.10
2018-09-13T04:40:33.351Z,5.47
2018-09-13T04:43:01.250Z,5.60
2018-09-13T04:45:29.127Z,5.83
2018-09-13T04:47:57.023Z,5.80
2018-09-13T04:50:24.900Z,5.10
2018-09-13T04:52:54.187Z,5.47
2018-09-13T04:55:21.931Z,5.43
2018-09-13T04:57:49.970Z,5.50
2018-09-13T05:00:26.918Z,4.90
2018-09-13T05:02:55.414Z,4.80
2018-09-13T05:05:23.581Z,5.50
2018-09-13T05:07:57.094Z,5.43
2018-09-13T05:10:24.992Z,5.37
2018-09-13T05:12:56.045Z,6.27
2018-09-13T05:15:28.548Z,6.20
2018-09-13T05:17:58.402Z,5.93
2018-09-13T05:20:26.224Z,6.00
2018-09-13T05:22:54.208Z,5.70
2018-09-13T05:25:22.355Z,5.43
2018-09-13T05:27:50.265Z,6.13
2018-09-13T05:30:18.266Z,6.07
2018-09-13T05:32:48.483Z,6.33
2018-09-13T05:35:16.332Z,6.47
2018-09-13T05:37:44.400Z,5.70
2018-09-13T05:40:13.551Z,5.97
2018-09-13T05:42:46.557Z,6.83
2018-09-13T05:45:14.467Z,6.30
2018-09-13T05:47:42.291Z,6.40
2018-09-13T05:50:10.145Z,5.97
2018-09-13T05:52:38.084Z,6.33
2018-09-13T05:55:06.039Z,6.17
2018-09-13T05:57:33.948Z,7.43
2018-09-13T06:00:01.756Z,6.93
2018-09-13T06:02:29.510Z,6.67
2018-09-13T06:04:57.268Z,6.40
2018-09-13T06:07:25.163Z,6.23
2018-09-13T06:09:52.968Z,6.30
2018-09-13T06:12:20.756Z,6.07
2018-09-13T06:14:48.529Z,6.30
2018-09-13T06:17:16.336Z,6.03
2018-09-13T06:19:44.198Z,6.50
2018-09-13T06:22:12.084Z,5.87
2018-09-13T06:24:40.030Z,6.13
2018-09-13T06:27:07.803Z,6.40
2018-09-13T06:29:35.929Z,7.03
2018-09-13T06:32:03.810Z,6.70
2018-09-13T06:34:31.632Z,6.70
2018-09-13T06:36:59.479Z,7.13
2018-09-13T06:39:27.270Z,6.93
2018-09-13T06:41:55.091Z,6.73
2018-09-13T06:44:22.864Z,7.23
2018-09-13T06:46:50.631Z,7.03
2018-09-13T06:49:18.518Z,6.37
2018-09-13T06:51:46.381Z,7.33
2018-09-13T06:54:14.189Z,6.30
2018-09-13T06:56:42.123Z,6.97
2018-09-13T06:59:09.989Z,7.57
2018-09-13T07:01:37.868Z,7.50
2018-09-13T07:04:05.708Z,6.27
2018-09-13T07:06:33.522Z,6.13
2018-09-13T07:09:05.232Z,6.63
2018-09-13T07:11:33.264Z,7.33
2018-09-13T07:14:01.114Z,7.23
2018-09-13T07:16:28.887Z,7.60
2018-09-13T07:18:56.675Z,7.43
2018-09-13T07:21:24.504Z,7.87
2018-09-13T07:23:52.421Z,7.03
2018-09-13T07:26:20.204Z,6.60
2018-09-13T07:28:48.025Z,6.97
2018-09-13T07:31:15.880Z,7.67
2018-09-13T07:33:43.755Z,7.27
2018-09-13T07:36:11.575Z,7.03
2018-09-13T07:38:39.427Z,6.40
2018-09-13T07:41:07.252Z,7.23
2018-09-13T07:43:35.059Z,7.00
2018-09-13T07:46:02.848Z,7.70
2018-09-13T07:48:30.955Z,7.03
2018-09-13T07:50:58.764Z,7.13
2018-09-13T07:53:26.608Z,7.40
2018-09-13T07:55:54.399Z,7.53
2018-09-13T07:58:22.208Z,7.73
2018-09-13T08:00:50.228Z,7.30
2018-09-13T08:03:18.096Z,7.33
2018-09-13T08:05:45.923Z,6.93
2018-09-13T08:08:13.756Z,7.03
2018-09-13T08:10:41.627Z,7.43
2018-09-13T08:13:09.388Z,8.30
2018-09-13T08:15:37.260Z,8.33
2018-09-13T08:18:05.100Z,8.03
2018-09-13T08:20:32.984Z,7.83
2018-09-13T08:23:00.812Z,7.23
2018-09-13T08:25:28.676Z,6.57
2018-09-13T08:27:56.435Z,8.03
2018-09-13T08:30:24.571Z,8.00
2018-09-13T08:32:52.391Z,7.80
2018-09-13T08:35:20.199Z,6.63
2018-09-13T08:37:47.992Z,7.73
2018-09-13T08:40:15.894Z,7.27
2018-09-13T08:42:43.648Z,8.40
2018-09-13T08:45:11.531Z,7.87
2018-09-13T08:47:39.411Z,7.80
2018-09-13T08:50:07.215Z,8.20
2018-09-13T08:52:35.007Z,7.97
2018-09-13T08:55:02.886Z,7.70
2018-09-13T08:57:30.671Z,8.93
2018-09-13T08:59:58.491Z,7.53
2018-09-13T09:02:26.292Z,7.07
2018-09-13T09:04:54.072Z,7.37
2018-09-13T09:07:21.907Z,7.10
2018-09-13T09:09:49.736Z,7.67
2018-09-13T09:12:17.599Z,7.40
2018-09-13T09:14:45.443Z,6.90
2018-09-13T09:17:13.247Z,7.17
2018-09-13T09:19:41.112Z,7.67
2018-09-13T09:22:08.918Z,7.67
2018-09-13T09:24:36.705Z,7.53
2018-09-13T09:27:04.588Z,7.23
2018-09-13T09:29:32.391Z,6.67
2018-09-13T09:32:00.263Z,6.70
2018-09-13T09:34:28.115Z,6.80
2018-09-13T09:36:55.923Z,6.10
2018-09-13T09:39:23.731Z,8.03
2018-09-13T09:41:51.544Z,8.13
2018-09-13T09:44:19.410Z,7.37
2018-09-13T09:46:47.205Z,7.70
2018-09-13T09:49:15.017Z,7.70
2018-09-13T09:51:42.890Z,7.70
2018-09-13T09:54:10.679Z,7.53
2018-09-13T09:56:38.596Z,7.53
2018-09-13T09:59:06.447Z,7.60
2018-09-13T10:01:37.556Z,6.60
2018-09-13T10:04:08.988Z,6.87
2018-09-13T10:06:36.909Z,7.43
2018-09-13T10:09:06.993Z,7.13
2018-09-13T10:11:35.197Z,7.13
2018-09-13T10:14:03.108Z,7.33
2018-09-13T10:16:36.835Z,6.73
2018-09-13T10:19:10.459Z,6.93
2018-09-13T10:21:43.947Z,6.37
2018-09-13T10:24:17.432Z,7.23
2018-09-13T10:26:53.679Z,7.93
2018-09-13T10:29:27.394Z,8.63
2018-09-13T10:32:01.060Z,8.67
2018-09-13T10:34:34.712Z,7.27
2018-09-13T10:37:08.289Z,7.00
2018-09-13T10:39:41.796Z,8.23
2018-09-13T10:42:15.293Z,7.20
2018-09-13T10:44:48.857Z,7.30
2018-09-13T10:47:22.335Z,7.03
2018-09-13T10:50:04.604Z,7.97
2018-09-13T10:52:35.100Z,7.30
2018-09-13T10:55:02.948Z,7.23
2018-09-13T10:57:36.511Z,7.77
2018-09-13T11:00:04.438Z,6.90
2018-09-13T11:02:32.273Z,7.67
2018-09-13T11:05:00.112Z,7.30
2018-09-13T11:07:27.921Z,8.40
2018-09-13T11:09:55.832Z,7.10
2018-09-13T11:12:28.408Z,8.20
2018-09-13T11:15:02.924Z,6.83
2018-09-13T11:17:31.032Z,8.27
2018-09-13T11:19:58.840Z,7.13
2018-09-13T11:22:26.655Z,6.10
2018-09-13T11:24:54.514Z,7.43
2018-09-13T11:27:22.347Z,7.63
2018-09-13T11:29:50.158Z,6.97
2018-09-13T11:32:18.043Z,7.43
2018-09-13T11:34:45.849Z,7.87
2018-09-13T11:37:13.828Z,6.70
2018-09-13T11:39:41.658Z,7.10
2018-09-13T11:42:09.603Z,7.40
2018-09-13T11:44:37.461Z,7.60
2018-09-13T11:47:05.907Z,6.97
2018-09-13T11:49:33.723Z,7.20
2018-09-13T11:52:01.615Z,7.57
2018-09-13T11:54:29.418Z,8.30
2018-09-13T11:56:57.227Z,8.30
2018-09-13T11:59:25.072Z,8.80
2018-09-13T12:01:52.856Z,8.33
2018-09-13T12:04:20.644Z,6.87
2018-09-13T12:06:48.515Z,7.50
2018-09-13T12:09:16.331Z,8.17
2018-09-13T12:11:44.200Z,7.97
2018-09-13T12:14:12.172Z,7.67
2018-09-13T12:16:39.950Z,7.97
2018-09-13T12:19:07.833Z,6.57
2018-09-13T12:21:35.679Z,6.93
2018-09-13T12:24:03.779Z,6.20
2018-09-13T12:26:31.848Z,7.37
2018-09-13T12:28:59.732Z,8.03
2018-09-13T12:31:27.599Z,9.00
2018-09-13T12:33:55.383Z,7.10
2018-09-13T12:36:23.223Z,7.00
2018-09-13T12:38:51.024Z,7.53
2018-09-13T12:41:18.904Z,8.23
2018-09-13T12:43:46.723Z,7.93
2018-09-13T12:46:14.545Z,6.70
2018-09-13T12:48:42.404Z,8.27
2018-09-13T12:51:10.253Z,7.47
2018-09-13T12:53:38.105Z,7.93
2018-09-13T12:56:05.983Z,7.87
2018-09-13T12:58:33.801Z,7.30
2018-09-13T13:01:01.600Z,7.40
2018-09-13T13:03:29.647Z,7.17
2018-09-13T13:05:57.497Z,7.07
2018-09-13T13:08:25.500Z,7.13
2018-09-13T13:10:53.328Z,6.90
2018-09-13T13:13:21.119Z,6.27
2018-09-13T13:15:48.882Z,6.73
2018-09-13T13:18:16.716Z,7.17
2018-09-13T13:20:44.548Z,5.90
2018-09-13T13:23:12.343Z,6.10
2018-09-13T13:25:40.139Z,7.23
2018-09-13T13:28:08.003Z,6.43
2018-09-13T13:30:35.841Z,5.57
2018-09-13T13:33:03.667Z,5.37
2018-09-13T13:35:31.527Z,5.17
2018-09-13T13:37:59.380Z,6.07
2018-09-13T13:40:27.159Z,5.90
2018-09-13T13:42:54.980Z,5.90
2018-09-13T13:45:22.794Z,6.20
2018-09-13T13:47:50.667Z,6.83
2018-09-13T13:50:18.472Z,5.57
2018-09-13T13:52:46.264Z,6.40
2018-09-13T13:55:14.040Z,5.87
2018-09-13T13:57:41.903Z,7.03
2018-09-13T14:00:10.627Z,6.43
2018-09-13T14:02:38.617Z,8.60
2018-09-13T14:05:06.581Z,7.27
2018-09-13T14:07:36.196Z,7.23
2018-09-13T14:10:04.113Z,7.40
2018-09-13T14:12:31.927Z,8.13
2018-09-13T14:14:59.713Z,8.27
2018-09-13T14:17:27.497Z,7.13
2018-09-13T14:19:55.411Z,8.57
2018-09-13T14:22:23.273Z,7.60
2018-09-13T14:24:51.023Z,8.53
2018-09-13T14:27:18.905Z,8.53
2018-09-13T14:29:46.800Z,7.60
2018-09-13T14:32:14.587Z,6.80
2018-09-13T14:34:42.456Z,7.50
2018-09-13T14:37:10.295Z,9.30
2018-09-13T14:39:38.410Z,6.53
2018-09-13T14:42:06.368Z,7.43
2018-09-13T14:44:34.163Z,7.83
2018-09-13T14:47:02.015Z,8.07
2018-09-13T14:49:29.753Z,7.53
2018-09-13T14:51:58.925Z,7.03
2018-09-13T14:54:26.660Z,7.40
2018-09-13T14:56:55.467Z,6.53
2018-09-13T14:59:23.317Z,6.83
2018-09-13T15:01:51.119Z,6.50
2018-09-13T15:04:18.913Z,6.83
2018-09-13T15:06:47.772Z,6.10
2018-09-13T15:09:15.504Z,7.33
2018-09-13T15:11:43.343Z,7.67
2018-09-13T15:14:11.139Z,7.00
2018-09-13T15:16:38.955Z,6.40
2018-09-13T15:19:06.780Z,6.50
2018-09-13T15:21:34.593Z,6.43
2018-09-13T15:24:02.409Z,5.97
2018-09-13T15:26:30.304Z,5.87
2018-09-13T15:28:58.067Z,6.93
2018-09-13T15:31:25.965Z,6.03
2018-09-13T15:33:53.810Z,5.93
2018-09-13T15:36:21.634Z,6.47
2018-09-13T15:38:49.484Z,6.30
2018-09-13T15:41:17.272Z,5.50
2018-09-13T15:43:45.300Z,6.87
2018-09-13T15:46:13.161Z,6.80
2018-09-13T15:48:40.923Z,6.43
2018-09-13T15:51:08.758Z,5.80
2018-09-13T15:53:36.687Z,6.37
2018-09-13T15:56:04.535Z,6.60
2018-09-13T15:58:32.396Z,5.90
2018-09-13T16:01:00.417Z,5.70
2018-09-13T16:03:28.191Z,5.47
2018-09-13T16:05:55.977Z,6.73
2018-09-13T16:08:23.787Z,6.60
2018-09-13T16:10:51.597Z,6.67
2018-09-13T16:13:19.387Z,6.10
2018-09-13T16:15:47.242Z,6.37
2018-09-13T16:18:15.018Z,6.40
2018-09-13T16:20:43.295Z,5.60
2018-09-13T16:23:11.288Z,5.80
2018-09-13T16:25:39.159Z,6.10
2018-09-13T16:28:07.038Z,6.60
2018-09-13T16:30:34.921Z,5.67
2018-09-13T16:33:02.835Z,5.53
2018-09-13T16:35:30.705Z,5.63
2018-09-13T16:38:05.619Z,5.73
2018-09-13T16:40:39.218Z,5.40
2018-09-13T16:43:13.108Z,5.60
2018-09-13T16:45:40.944Z,4.87
2018-09-13T16:48:08.775Z,5.20
2018-09-13T16:50:36.624Z,5.83
2018-09-13T16:53:04.746Z,5.73
2018-09-13T16:55:32.571Z,5.70
2018-09-13T16:58:00.583Z,5.37
2018-09-13T17:00:28.408Z,5.50
2018-09-13T17:02:56.228Z,5.27
2018-09-13T17:05:24.152Z,5.60
2018-09-13T17:07:51.943Z,5.90
2018-09-13T17:10:19.717Z,5.87
2018-09-13T17:12:47.627Z,5.67
2018-09-13T17:15:15.464Z,5.30
2018-09-13T17:17:43.271Z,5.17
2018-09-13T17:20:11.245Z,5.17
2018-09-13T17:22:39.059Z,5.17
2018-09-13T17:25:06.936Z,5.40
2018-09-13T17:27:34.779Z,5.07
2018-09-13T17:30:02.847Z,5.97
2018-09-13T17:32:30.644Z,5.30
2018-09-13T17:34:58.403Z,5.30
2018-09-13T17:37:26.200Z,5.27
2018-09-13T17:39:54.048Z,4.63
2018-09-13T17:42:21.816Z,5.03
2018-09-13T17:44:49.665Z,5.57
2018-09-13T17:47:17.517Z,5.07
2018-09-13T17:49:45.459Z,4.70
2018-09-13T17:52:13.212Z,5.87
2018-09-13T17:54:40.995Z,4.63
2018-09-13T17:57:08.864Z,4.60
2018-09-13T17:59:36.656Z,5.23
2018-09-13T18:02:04.484Z,4.60
2018-09-13T18:04:32.376Z,5.20
2018-09-13T18:07:00.196Z,4.97
2018-09-13T18:09:28.005Z,4.70
2018-09-13T18:11:55.932Z,4.63
2018-09-13T18:14:23.724Z,4.97
2018-09-13T18:16:51.569Z,5.23
2018-09-13T18:19:19.388Z,4.97
2018-09-13T18:21:47.235Z,4.57
2018-09-13T18:24:15.130Z,5.07
2018-09-13T18:26:43.019Z,5.20
2018-09-13T18:29:10.781Z,4.97
2018-09-13T18:31:38.604Z,5.47
2018-09-13T18:34:06.854Z,5.10
2018-09-13T18:36:34.757Z,5.37
2018-09-13T18:39:03.374Z,5.40
2018-09-13T18:41:32.002Z,5.47
2018-09-13T18:43:59.782Z,5.60
2018-09-13T18:46:27.588Z,5.37
2018-09-13T18:48:55.555Z,5.40
2018-09-13T18:51:23.397Z,5.43
2018-09-13T18:54:01.191Z,5.40
2018-09-13T18:56:33.526Z,5.43
2018-09-13T18:59:05.927Z,5.60
2018-09-13T19:01:33.775Z,5.30
2018-09-13T19:04:01.837Z,5.20
2018-09-13T19:06:37.710Z,5.80
2018-09-13T19:09:08.139Z,4.60
2018-09-13T19:11:36.056Z,4.60
2018-09-13T19:14:04.140Z,4.63
2018-09-13T19:16:31.908Z,4.80
2018-09-13T19:18:59.739Z,3.80
2018-09-13T19:21:27.563Z,4.63
2018-09-13T19:23:55.395Z,4.60
2018-09-13T19:26:23.399Z,4.07
2018-09-13T19:28:51.287Z,4.03
2018-09-13T19:31:19.085Z,3.90
2018-09-13T19:33:46.915Z,4.10
2018-09-13T19:36:14.991Z,4.43
2018-09-13T19:38:42.876Z,4.00
2018-09-13T19:41:11.143Z,4.20
2018-09-13T19:43:39.272Z,4.23
2018-09-13T19:46:07.347Z,4.00
2018-09-13T19:48:35.878Z,4.57
2018-09-13T19:51:03.929Z,4.07
2018-09-13T19:53:31.555Z,4.63
2018-09-13T19:56:00.422Z,5.40
2018-09-13T19:58:28.702Z,4.80
2018-09-13T20:00:56.643Z,5.00
2018-09-13T20:03:24.453Z,4.37
2018-09-13T20:05:52.525Z,5.20
2018-09-13T20:08:20.296Z,4.37
2018-09-13T20:10:48.064Z,4.83
2018-09-13T20:13:15.924Z,5.47
2018-09-13T20:15:43.927Z,5.40
2018-09-13T20:18:14.625Z,5.33
2018-09-13T20:20:50.179Z,5.07
2018-09-13T20:23:23.183Z,5.23
2018-09-13T20:25:56.452Z,6.00
2018-09-13T20:28:27.588Z,5.33
2018-09-13T20:31:02.594Z,6.07
2018-09-13T20:33:35.320Z,5.53
2018-09-13T20:36:06.632Z,5.23
2018-09-13T20:38:44.510Z,5.47
2018-09-13T20:41:21.413Z,5.37
2018-09-13T20:43:49.243Z,5.13
2018-09-13T20:46:17.052Z,5.83
2018-09-13T20:48:49.033Z,5.40
2018-09-13T20:51:18.581Z,4.50
2018-09-13T20:53:46.412Z,5.27
2018-09-13T20:56:14.367Z,4.77
2018-09-13T20:58:42.164Z,4.60
2018-09-13T21:01:19.047Z,4.47
2018-09-13T21:03:47.259Z,5.13
2018-09-13T21:06:15.099Z,4.80
2018-09-13T21:08:42.985Z,4.70
2018-09-13T21:11:10.678Z,5.00
2018-09-13T21:13:38.459Z,4.83
2018-09-13T21:16:06.738Z,5.20
2018-09-13T21:18:34.592Z,4.83
2018-09-13T21:21:02.365Z,4.50
2018-09-13T21:23:30.183Z,4.97
2018-09-13T21:25:58.004Z,5.07
2018-09-13T21:28:25.889Z,5.13
2018-09-13T21:30:53.759Z,4.07
2018-09-13T21:33:21.614Z,4.33
2018-09-13T21:35:49.407Z,4.20
2018-09-13T21:38:17.211Z,5.10
2018-09-13T21:40:45.062Z,4.77
2018-09-13T21:43:12.904Z,3.83
2018-09-13T21:45:40.724Z,4.07
2018-09-13T21:48:08.426Z,4.40
2018-09-13T21:50:36.355Z,4.50
2018-09-13T21:53:04.155Z,4.57
2018-09-13T21:55:32.019Z,4.00
2018-09-13T21:57:59.839Z,4.40
2018-09-13T22:00:27.677Z,4.50
2018-09-13T22:02:55.508Z,4.63
2018-09-13T22:05:23.322Z,5.13
2018-09-13T22:07:51.159Z,4.80
2018-09-13T22:10:18.975Z,5.13
2018-09-13T22:12:46.747Z,5.03
2018-09-13T22:15:14.540Z,4.67
2018-09-13T22:17:42.368Z,5.40
2018-09-13T22:20:10.208Z,5.20
2018-09-13T22:22:38.051Z,5.40
2018-09-13T22:25:06.345Z,5.50
2018-09-13T22:27:34.317Z,5.43
2018-09-13T22:30:02.725Z,4.80
2018-09-13T22:32:30.639Z,5.43
2018-09-13T22:34:58.590Z,5.77
2018-09-13T22:37:26.471Z,5.33
2018-09-13T22:39:54.348Z,5.67
2018-09-13T22:42:22.204Z,5.70
2018-09-13T22:44:50.109Z,6.47
2018-09-13T22:47:18.049Z,6.07
2018-09-13T22:49:45.808Z,5.70
2018-09-13T22:52:13.588Z,5.80
2018-09-13T22:54:41.432Z,6.23
2018-09-13T22:57:09.315Z,5.60
2018-09-13T22:59:37.188Z,5.50
2018-09-13T23:02:05.064Z,5.43
2018-09-13T23:04:35.514Z,6.37
2018-09-13T23:07:03.488Z,6.07
2018-09-13T23:09:31.343Z,5.90
2018-09-13T23:11:59.180Z,6.00
2018-09-13T23:14:26.960Z,5.47
2018-09-13T23:16:54.726Z,5.27
2018-09-13T23:19:22.561Z,6.53
2018-09-13T23:21:50.355Z,5.83
2018-09-13T23:24:18.234Z,5.50
2018-09-13T23:26:46.045Z,5.30
2018-09-13T23:29:13.903Z,6.07
2018-09-13T23:31:41.737Z,5.50
2018-09-13T23:34:09.551Z,5.40
2018-09-13T23:36:37.340Z,6.10
2018-09-13T23:39:08.449Z,4.37
2018-09-13T23:41:36.830Z,5.37
2018-09-13T23:44:04.631Z,5.60
2018-09-13T23:46:35.309Z,5.27
2018-09-13T23:49:03.394Z,5.93
2018-09-13T23:51:31.279Z,6.53
2018-09-13T23:53:59.035Z,6.93
2018-09-13T23:56:26.891Z,6.30
2018-09-13T23:58:54.681Z,6.33
